sensor_id;sensor_type;location;lat;lon;timestamp;P1;durP1;ratioP1;P2;durP2;ratioP2
41061;SDS011;26812;42.662;23.352;2022-07-23T00:00:33;8.93;;;6.00;;
41061;SDS011;26812;42.662;23.352;2022-07-23T00:02:58;9.02;;;6.38;;
41061;SDS011;26812;42.662;23.352;2022-07-23T00:05:24;10.55;;;6.10;;
41061;SDS011;26812;42.662;23.352;2022-07-23T00:07:49;8.63;;;6.70;;
41061;SDS011;26812;42.662;23.352;2022-07-23T00:10:15;9.52;;;5.53;;
41061;SDS011;26812;42.662;23.352;2022-07-23T00:12:40;15.38;;;6.70;;
41061;SDS011;26812;42.662;23.352;2022-07-23T00:15:06;7.88;;;6.18;;
41061;SDS011;26812;42.662;23.352;2022-07-23T00:17:32;10.50;;;6.25;;
41061;SDS011;26812;42.662;23.352;2022-07-23T00:19:58;12.00;;;6.00;;
41061;SDS011;26812;42.662;23.352;2022-07-23T00:22:23;9.98;;;6.57;;
41061;SDS011;26812;42.662;23.352;2022-07-23T00:24:49;9.52;;;6.72;;
41061;SDS011;26812;42.662;23.352;2022-07-23T00:27:15;8.35;;;6.60;;
41061;SDS011;26812;42.662;23.352;2022-07-23T00:29:40;10.15;;;6.72;;
41061;SDS011;26812;42.662;23.352;2022-07-23T00:32:05;9.88;;;6.80;;
41061;SDS011;26812;42.662;23.352;2022-07-23T00:34:31;10.20;;;7.13;;
41061;SDS011;26812;42.662;23.352;2022-07-23T00:36:56;8.82;;;6.85;;
41061;SDS011;26812;42.662;23.352;2022-07-23T00:39:22;7.93;;;6.30;;
41061;SDS011;26812;42.662;23.352;2022-07-23T00:41:48;10.93;;;6.72;;
41061;SDS011;26812;42.662;23.352;2022-07-23T00:44:14;9.55;;;6.28;;
41061;SDS011;26812;42.662;23.352;2022-07-23T00:46:44;12.32;;;7.00;;
41061;SDS011;26812;42.662;23.352;2022-07-23T00:49:11;9.20;;;5.45;;
41061;SDS011;26812;42.662;23.352;2022-07-23T00:51:37;6.95;;;5.63;;
41061;SDS011;26812;42.662;23.352;2022-07-23T00:54:02;9.88;;;6.32;;
41061;SDS011;26812;42.662;23.352;2022-07-23T00:56:28;7.22;;;6.53;;
41061;SDS011;26812;42.662;23.352;2022-07-23T00:58:55;7.53;;;6.05;;
41061;SDS011;26812;42.662;23.352;2022-07-23T01:01:21;9.55;;;6.10;;
41061;SDS011;26812;42.662;23.352;2022-07-23T01:03:47;6.25;;;5.65;;
41061;SDS011;26812;42.662;23.352;2022-07-23T01:06:12;7.82;;;5.35;;
41061;SDS011;26812;42.662;23.352;2022-07-23T01:08:38;8.15;;;5.53;;
41061;SDS011;26812;42.662;23.352;2022-07-23T01:11:04;7.30;;;5.40;;
41061;SDS011;26812;42.662;23.352;2022-07-23T01:13:30;10.18;;;5.93;;
41061;SDS011;26812;42.662;23.352;2022-07-23T01:15:55;7.90;;;5.70;;
41061;SDS011;26812;42.662;23.352;2022-07-23T01:18:21;6.78;;;5.38;;
41061;SDS011;26812;42.662;23.352;2022-07-23T01:20:46;8.40;;;6.10;;
41061;SDS011;26812;42.662;23.352;2022-07-23T01:23:11;8.70;;;5.45;;
41061;SDS011;26812;42.662;23.352;2022-07-23T01:25:37;5.72;;;5.15;;
41061;SDS011;26812;42.662;23.352;2022-07-23T01:28:02;8.20;;;5.78;;
41061;SDS011;26812;42.662;23.352;2022-07-23T01:30:28;6.65;;;5.90;;
41061;SDS011;26812;42.662;23.352;2022-07-23T01:32:53;8.27;;;5.57;;
41061;SDS011;26812;42.662;23.352;2022-07-23T01:35:19;8.88;;;5.57;;
41061;SDS011;26812;42.662;23.352;2022-07-23T01:37:44;7.53;;;5.82;;
41061;SDS011;26812;42.662;23.352;2022-07-23T01:40:10;7.35;;;5.90;;
41061;SDS011;26812;42.662;23.352;2022-07-23T01:42:35;6.13;;;5.57;;
41061;SDS011;26812;42.662;23.352;2022-07-23T01:45:01;8.68;;;6.22;;
41061;SDS011;26812;42.662;23.352;2022-07-23T01:47:27;8.57;;;5.78;;
41061;SDS011;26812;42.662;23.352;2022-07-23T01:49:53;6.70;;;5.32;;
41061;SDS011;26812;42.662;23.352;2022-07-23T01:52:18;6.72;;;5.70;;
41061;SDS011;26812;42.662;23.352;2022-07-23T01:54:43;7.22;;;6.03;;
41061;SDS011;26812;42.662;23.352;2022-07-23T01:57:09;7.40;;;5.70;;
41061;SDS011;26812;42.662;23.352;2022-07-23T01:59:34;9.32;;;5.88;;
41061;SDS011;26812;42.662;23.352;2022-07-23T02:02:00;9.38;;;6.13;;
41061;SDS011;26812;42.662;23.352;2022-07-23T02:04:26;6.70;;;5.75;;
41061;SDS011;26812;42.662;23.352;2022-07-23T02:06:52;6.47;;;5.88;;
41061;SDS011;26812;42.662;23.352;2022-07-23T02:09:18;10.05;;;5.78;;
41061;SDS011;26812;42.662;23.352;2022-07-23T02:11:43;6.95;;;6.25;;
41061;SDS011;26812;42.662;23.352;2022-07-23T02:14:09;7.60;;;5.47;;
41061;SDS011;26812;42.662;23.352;2022-07-23T02:16:34;7.57;;;6.10;;
41061;SDS011;26812;42.662;23.352;2022-07-23T02:19:00;10.13;;;6.60;;
41061;SDS011;26812;42.662;23.352;2022-07-23T02:21:25;9.70;;;6.18;;
41061;SDS011;26812;42.662;23.352;2022-07-23T02:23:51;7.32;;;6.55;;
41061;SDS011;26812;42.662;23.352;2022-07-23T02:26:16;7.90;;;6.13;;
41061;SDS011;26812;42.662;23.352;2022-07-23T02:28:41;8.82;;;5.95;;
41061;SDS011;26812;42.662;23.352;2022-07-23T02:31:07;8.13;;;6.25;;
41061;SDS011;26812;42.662;23.352;2022-07-23T02:33:32;6.55;;;5.95;;
41061;SDS011;26812;42.662;23.352;2022-07-23T02:35:58;8.02;;;6.13;;
41061;SDS011;26812;42.662;23.352;2022-07-23T02:38:24;10.73;;;6.57;;
41061;SDS011;26812;42.662;23.352;2022-07-23T02:40:49;6.93;;;6.15;;
41061;SDS011;26812;42.662;23.352;2022-07-23T02:43:15;7.40;;;6.20;;
41061;SDS011;26812;42.662;23.352;2022-07-23T02:45:40;8.90;;;5.97;;
41061;SDS011;26812;42.662;23.352;2022-07-23T02:48:06;7.28;;;6.13;;
41061;SDS011;26812;42.662;23.352;2022-07-23T02:50:31;10.13;;;6.38;;
41061;SDS011;26812;42.662;23.352;2022-07-23T02:52:56;9.32;;;6.10;;
41061;SDS011;26812;42.662;23.352;2022-07-23T02:55:22;6.97;;;6.22;;
41061;SDS011;26812;42.662;23.352;2022-07-23T02:57:47;8.38;;;7.13;;
41061;SDS011;26812;42.662;23.352;2022-07-23T03:00:13;10.07;;;6.53;;
41061;SDS011;26812;42.662;23.352;2022-07-23T03:02:38;8.80;;;6.72;;
41061;SDS011;26812;42.662;23.352;2022-07-23T03:05:04;10.45;;;6.75;;
41061;SDS011;26812;42.662;23.352;2022-07-23T03:07:30;7.20;;;6.25;;
41061;SDS011;26812;42.662;23.352;2022-07-23T03:09:55;9.38;;;6.25;;
41061;SDS011;26812;42.662;23.352;2022-07-23T03:12:21;9.43;;;6.05;;
41061;SDS011;26812;42.662;23.352;2022-07-23T03:14:46;9.30;;;6.35;;
41061;SDS011;26812;42.662;23.352;2022-07-23T03:17:11;10.80;;;6.88;;
41061;SDS011;26812;42.662;23.352;2022-07-23T03:19:37;8.07;;;6.63;;
41061;SDS011;26812;42.662;23.352;2022-07-23T03:22:03;12.30;;;6.25;;
41061;SDS011;26812;42.662;23.352;2022-07-23T03:24:29;13.23;;;6.85;;
41061;SDS011;26812;42.662;23.352;2022-07-23T03:27:13;11.57;;;8.70;;
41061;SDS011;26812;42.662;23.352;2022-07-23T03:29:38;9.45;;;6.68;;
41061;SDS011;26812;42.662;23.352;2022-07-23T03:32:04;11.07;;;7.05;;
41061;SDS011;26812;42.662;23.352;2022-07-23T03:34:29;8.13;;;7.03;;
41061;SDS011;26812;42.662;23.352;2022-07-23T03:36:55;8.82;;;6.40;;
41061;SDS011;26812;42.662;23.352;2022-07-23T03:39:20;9.00;;;6.93;;
41061;SDS011;26812;42.662;23.352;2022-07-23T03:41:45;8.50;;;6.43;;
41061;SDS011;26812;42.662;23.352;2022-07-23T03:44:11;8.02;;;6.57;;
41061;SDS011;26812;42.662;23.352;2022-07-23T03:46:36;9.20;;;6.65;;
41061;SDS011;26812;42.662;23.352;2022-07-23T03:49:02;8.77;;;7.88;;
41061;SDS011;26812;42.662;23.352;2022-07-23T03:51:27;9.35;;;7.13;;
41061;SDS011;26812;42.662;23.352;2022-07-23T03:53:53;10.98;;;8.32;;
41061;SDS011;26812;42.662;23.352;2022-07-23T03:56:19;11.05;;;8.05;;
41061;SDS011;26812;42.662;23.352;2022-07-23T03:58:45;10.60;;;7.82;;
41061;SDS011;26812;42.662;23.352;2022-07-23T04:01:10;10.95;;;8.05;;
41061;SDS011;26812;42.662;23.352;2022-07-23T04:03:36;14.30;;;8.52;;
41061;SDS011;26812;42.662;23.352;2022-07-23T04:06:02;12.68;;;8.93;;
41061;SDS011;26812;42.662;23.352;2022-07-23T04:08:27;10.00;;;8.13;;
41061;SDS011;26812;42.662;23.352;2022-07-23T04:10:53;12.90;;;8.70;;
41061;SDS011;26812;42.662;23.352;2022-07-23T04:13:18;9.20;;;8.27;;
41061;SDS011;26812;42.662;23.352;2022-07-23T04:15:43;10.75;;;8.43;;
41061;SDS011;26812;42.662;23.352;2022-07-23T04:18:09;9.23;;;8.27;;
41061;SDS011;26812;42.662;23.352;2022-07-23T04:20:34;11.23;;;8.35;;
41061;SDS011;26812;42.662;23.352;2022-07-23T04:23:00;11.77;;;8.35;;
41061;SDS011;26812;42.662;23.352;2022-07-23T04:25:25;11.35;;;7.68;;
41061;SDS011;26812;42.662;23.352;2022-07-23T04:27:50;11.02;;;8.27;;
41061;SDS011;26812;42.662;23.352;2022-07-23T04:30:16;12.82;;;8.63;;
41061;SDS011;26812;42.662;23.352;2022-07-23T04:32:41;14.65;;;8.07;;
41061;SDS011;26812;42.662;23.352;2022-07-23T04:35:07;11.93;;;8.98;;
41061;SDS011;26812;42.662;23.352;2022-07-23T04:37:33;9.52;;;8.10;;
41061;SDS011;26812;42.662;23.352;2022-07-23T04:39:58;8.32;;;7.25;;
41061;SDS011;26812;42.662;23.352;2022-07-23T04:42:23;9.35;;;7.90;;
41061;SDS011;26812;42.662;23.352;2022-07-23T04:44:49;9.88;;;8.20;;
41061;SDS011;26812;42.662;23.352;2022-07-23T04:47:14;10.65;;;7.85;;
41061;SDS011;26812;42.662;23.352;2022-07-23T04:49:39;9.77;;;7.10;;
41061;SDS011;26812;42.662;23.352;2022-07-23T04:52:05;9.48;;;7.90;;
41061;SDS011;26812;42.662;23.352;2022-07-23T04:54:30;9.43;;;7.70;;
41061;SDS011;26812;42.662;23.352;2022-07-23T04:56:55;11.73;;;8.02;;
41061;SDS011;26812;42.662;23.352;2022-07-23T04:59:21;10.75;;;7.20;;
41061;SDS011;26812;42.662;23.352;2022-07-23T05:01:47;12.45;;;7.50;;
41061;SDS011;26812;42.662;23.352;2022-07-23T05:04:12;11.23;;;7.63;;
41061;SDS011;26812;42.662;23.352;2022-07-23T05:06:38;10.32;;;7.65;;
41061;SDS011;26812;42.662;23.352;2022-07-23T05:09:03;8.13;;;7.18;;
41061;SDS011;26812;42.662;23.352;2022-07-23T05:11:28;11.18;;;6.72;;
41061;SDS011;26812;42.662;23.352;2022-07-23T05:13:54;8.10;;;7.28;;
41061;SDS011;26812;42.662;23.352;2022-07-23T05:16:19;10.32;;;6.85;;
41061;SDS011;26812;42.662;23.352;2022-07-23T05:18:44;8.85;;;7.95;;
41061;SDS011;26812;42.662;23.352;2022-07-23T05:21:10;11.40;;;8.05;;
41061;SDS011;26812;42.662;23.352;2022-07-23T05:23:35;10.55;;;7.88;;
41061;SDS011;26812;42.662;23.352;2022-07-23T05:26:01;12.88;;;7.07;;
41061;SDS011;26812;42.662;23.352;2022-07-23T05:28:26;10.77;;;7.30;;
41061;SDS011;26812;42.662;23.352;2022-07-23T05:30:51;9.07;;;7.43;;
41061;SDS011;26812;42.662;23.352;2022-07-23T05:33:20;8.70;;;7.72;;
41061;SDS011;26812;42.662;23.352;2022-07-23T05:35:46;9.65;;;8.00;;
41061;SDS011;26812;42.662;23.352;2022-07-23T05:38:11;11.07;;;7.63;;
41061;SDS011;26812;42.662;23.352;2022-07-23T05:40:36;10.38;;;7.70;;
41061;SDS011;26812;42.662;23.352;2022-07-23T05:43:02;10.82;;;7.78;;
41061;SDS011;26812;42.662;23.352;2022-07-23T05:45:27;10.05;;;6.85;;
41061;SDS011;26812;42.662;23.352;2022-07-23T05:47:53;11.68;;;7.65;;
41061;SDS011;26812;42.662;23.352;2022-07-23T05:50:18;9.07;;;7.25;;
41061;SDS011;26812;42.662;23.352;2022-07-23T05:52:43;10.18;;;7.50;;
41061;SDS011;26812;42.662;23.352;2022-07-23T05:55:10;7.70;;;6.93;;
41061;SDS011;26812;42.662;23.352;2022-07-23T05:57:37;10.02;;;7.13;;
41061;SDS011;26812;42.662;23.352;2022-07-23T06:00:03;11.45;;;6.97;;
41061;SDS011;26812;42.662;23.352;2022-07-23T06:02:30;9.38;;;7.35;;
41061;SDS011;26812;42.662;23.352;2022-07-23T06:04:55;9.68;;;7.57;;
41061;SDS011;26812;42.662;23.352;2022-07-23T06:07:21;10.93;;;7.85;;
41061;SDS011;26812;42.662;23.352;2022-07-23T06:09:46;12.02;;;7.18;;
41061;SDS011;26812;42.662;23.352;2022-07-23T06:12:13;11.50;;;7.25;;
41061;SDS011;26812;42.662;23.352;2022-07-23T06:14:40;10.52;;;7.60;;
41061;SDS011;26812;42.662;23.352;2022-07-23T06:17:05;10.88;;;7.30;;
41061;SDS011;26812;42.662;23.352;2022-07-23T06:19:30;8.85;;;6.80;;
41061;SDS011;26812;42.662;23.352;2022-07-23T06:21:56;8.88;;;7.35;;
41061;SDS011;26812;42.662;23.352;2022-07-23T06:24:21;7.93;;;7.10;;
41061;SDS011;26812;42.662;23.352;2022-07-23T06:26:47;12.25;;;6.97;;
41061;SDS011;26812;42.662;23.352;2022-07-23T06:29:12;11.65;;;7.10;;
41061;SDS011;26812;42.662;23.352;2022-07-23T06:31:37;8.98;;;6.63;;
41061;SDS011;26812;42.662;23.352;2022-07-23T06:34:03;10.73;;;6.53;;
41061;SDS011;26812;42.662;23.352;2022-07-23T06:36:28;10.02;;;7.18;;
41061;SDS011;26812;42.662;23.352;2022-07-23T06:38:54;9.13;;;6.57;;
41061;SDS011;26812;42.662;23.352;2022-07-23T06:41:19;7.15;;;6.40;;
41061;SDS011;26812;42.662;23.352;2022-07-23T06:43:44;9.52;;;7.40;;
41061;SDS011;26812;42.662;23.352;2022-07-23T06:46:10;10.32;;;7.53;;
41061;SDS011;26812;42.662;23.352;2022-07-23T06:48:35;10.60;;;7.15;;
41061;SDS011;26812;42.662;23.352;2022-07-23T06:51:01;8.88;;;7.50;;
41061;SDS011;26812;42.662;23.352;2022-07-23T06:53:27;9.88;;;7.40;;
41061;SDS011;26812;42.662;23.352;2022-07-23T06:55:52;9.82;;;7.38;;
41061;SDS011;26812;42.662;23.352;2022-07-23T06:58:18;11.77;;;7.45;;
41061;SDS011;26812;42.662;23.352;2022-07-23T07:00:44;13.48;;;7.22;;
41061;SDS011;26812;42.662;23.352;2022-07-23T07:03:10;7.35;;;6.45;;
41061;SDS011;26812;42.662;23.352;2022-07-23T07:05:35;12.07;;;7.28;;
41061;SDS011;26812;42.662;23.352;2022-07-23T07:08:00;9.50;;;6.68;;
41061;SDS011;26812;42.662;23.352;2022-07-23T07:10:26;10.20;;;6.82;;
41061;SDS011;26812;42.662;23.352;2022-07-23T07:12:51;8.77;;;7.32;;
41061;SDS011;26812;42.662;23.352;2022-07-23T07:15:17;7.35;;;6.53;;
41061;SDS011;26812;42.662;23.352;2022-07-23T07:17:42;10.40;;;7.03;;
41061;SDS011;26812;42.662;23.352;2022-07-23T07:20:11;10.07;;;6.72;;
41061;SDS011;26812;42.662;23.352;2022-07-23T07:22:38;10.10;;;7.13;;
41061;SDS011;26812;42.662;23.352;2022-07-23T07:25:09;9.48;;;7.72;;
41061;SDS011;26812;42.662;23.352;2022-07-23T07:27:35;11.23;;;7.05;;
41061;SDS011;26812;42.662;23.352;2022-07-23T07:30:04;9.80;;;7.50;;
41061;SDS011;26812;42.662;23.352;2022-07-23T07:32:30;9.25;;;6.90;;
41061;SDS011;26812;42.662;23.352;2022-07-23T07:34:57;10.57;;;7.85;;
41061;SDS011;26812;42.662;23.352;2022-07-23T07:37:23;9.45;;;6.88;;
41061;SDS011;26812;42.662;23.352;2022-07-23T07:39:48;8.27;;;6.50;;
41061;SDS011;26812;42.662;23.352;2022-07-23T07:42:14;6.90;;;6.20;;
41061;SDS011;26812;42.662;23.352;2022-07-23T07:44:39;7.72;;;6.82;;
41061;SDS011;26812;42.662;23.352;2022-07-23T07:47:05;6.82;;;6.13;;
41061;SDS011;26812;42.662;23.352;2022-07-23T07:49:33;8.13;;;6.32;;
41061;SDS011;26812;42.662;23.352;2022-07-23T07:52:07;12.15;;;6.93;;
41061;SDS011;26812;42.662;23.352;2022-07-23T07:54:33;7.55;;;6.55;;
41061;SDS011;26812;42.662;23.352;2022-07-23T07:57:07;9.00;;;6.80;;
41061;SDS011;26812;42.662;23.352;2022-07-23T07:59:33;9.80;;;6.75;;
41061;SDS011;26812;42.662;23.352;2022-07-23T08:02:01;8.88;;;6.85;;
41061;SDS011;26812;42.662;23.352;2022-07-23T08:04:27;7.10;;;5.93;;
41061;SDS011;26812;42.662;23.352;2022-07-23T08:06:52;9.32;;;6.88;;
41061;SDS011;26812;42.662;23.352;2022-07-23T08:09:17;8.35;;;6.75;;
41061;SDS011;26812;42.662;23.352;2022-07-23T08:11:43;12.20;;;7.28;;
41061;SDS011;26812;42.662;23.352;2022-07-23T08:14:08;10.77;;;6.15;;
41061;SDS011;26812;42.662;23.352;2022-07-23T08:16:36;7.72;;;5.95;;
41061;SDS011;26812;42.662;23.352;2022-07-23T08:19:01;7.22;;;6.50;;
41061;SDS011;26812;42.662;23.352;2022-07-23T08:21:27;8.50;;;6.13;;
41061;SDS011;26812;42.662;23.352;2022-07-23T08:23:52;9.10;;;6.68;;
41061;SDS011;26812;42.662;23.352;2022-07-23T08:26:18;7.53;;;6.75;;
41061;SDS011;26812;42.662;23.352;2022-07-23T08:28:43;9.55;;;6.88;;
41061;SDS011;26812;42.662;23.352;2022-07-23T08:31:08;22.13;;;8.82;;
41061;SDS011;26812;42.662;23.352;2022-07-23T08:33:36;11.10;;;6.63;;
41061;SDS011;26812;42.662;23.352;2022-07-23T08:36:01;7.75;;;6.47;;
41061;SDS011;26812;42.662;23.352;2022-07-23T08:38:28;12.90;;;6.45;;
41061;SDS011;26812;42.662;23.352;2022-07-23T08:40:54;8.98;;;6.53;;
41061;SDS011;26812;42.662;23.352;2022-07-23T08:43:31;7.38;;;6.07;;
41061;SDS011;26812;42.662;23.352;2022-07-23T08:45:58;9.20;;;6.22;;
41061;SDS011;26812;42.662;23.352;2022-07-23T08:48:25;9.98;;;6.63;;
41061;SDS011;26812;42.662;23.352;2022-07-23T08:50:56;10.32;;;6.28;;
41061;SDS011;26812;42.662;23.352;2022-07-23T08:53:24;13.30;;;6.38;;
41061;SDS011;26812;42.662;23.352;2022-07-23T08:55:55;8.88;;;5.82;;
41061;SDS011;26812;42.662;23.352;2022-07-23T08:58:22;9.95;;;6.28;;
41061;SDS011;26812;42.662;23.352;2022-07-23T09:00:48;8.57;;;6.03;;
41061;SDS011;26812;42.662;23.352;2022-07-23T09:03:21;8.02;;;6.15;;
41061;SDS011;26812;42.662;23.352;2022-07-23T09:05:51;14.70;;;8.50;;
41061;SDS011;26812;42.662;23.352;2022-07-23T09:13:24;8.68;;;5.97;;
41061;SDS011;26812;42.662;23.352;2022-07-23T09:15:53;11.10;;;6.55;;
41061;SDS011;26812;42.662;23.352;2022-07-23T09:19:03;11.07;;;6.97;;
41061;SDS011;26812;42.662;23.352;2022-07-23T09:23:56;9.15;;;6.30;;
41061;SDS011;26812;42.662;23.352;2022-07-23T09:26:35;7.50;;;6.18;;
41061;SDS011;26812;42.662;23.352;2022-07-23T09:34:33;8.23;;;5.82;;
41061;SDS011;26812;42.662;23.352;2022-07-23T09:37:15;8.15;;;6.35;;
41061;SDS011;26812;42.662;23.352;2022-07-23T09:39:45;8.68;;;6.60;;
41061;SDS011;26812;42.662;23.352;2022-07-23T09:44:46;7.80;;;5.32;;
41061;SDS011;26812;42.662;23.352;2022-07-23T09:47:12;9.32;;;5.90;;
41061;SDS011;26812;42.662;23.352;2022-07-23T09:49:38;8.98;;;5.55;;
41061;SDS011;26812;42.662;23.352;2022-07-23T09:52:03;13.20;;;8.57;;
41061;SDS011;26812;42.662;23.352;2022-07-23T09:57:04;11.57;;;6.07;;
41061;SDS011;26812;42.662;23.352;2022-07-23T09:59:40;9.18;;;5.70;;
41061;SDS011;26812;42.662;23.352;2022-07-23T10:02:08;6.65;;;5.10;;
41061;SDS011;26812;42.662;23.352;2022-07-23T10:04:35;9.63;;;5.50;;
41061;SDS011;26812;42.662;23.352;2022-07-23T10:07:03;6.55;;;5.40;;
41061;SDS011;26812;42.662;23.352;2022-07-23T10:09:31;8.07;;;5.80;;
41061;SDS011;26812;42.662;23.352;2022-07-23T10:12:02;11.70;;;7.03;;
41061;SDS011;26812;42.662;23.352;2022-07-23T10:14:48;7.47;;;6.15;;
41061;SDS011;26812;42.662;23.352;2022-07-23T10:17:15;6.40;;;5.10;;
41061;SDS011;26812;42.662;23.352;2022-07-23T10:19:40;7.38;;;5.75;;
41061;SDS011;26812;42.662;23.352;2022-07-23T10:22:11;12.95;;;6.30;;
41061;SDS011;26812;42.662;23.352;2022-07-23T10:30:20;11.55;;;5.70;;
41061;SDS011;26812;42.662;23.352;2022-07-23T10:36:02;6.07;;;4.97;;
41061;SDS011;26812;42.662;23.352;2022-07-23T10:41:30;7.50;;;4.70;;
41061;SDS011;26812;42.662;23.352;2022-07-23T10:44:10;12.18;;;6.20;;
41061;SDS011;26812;42.662;23.352;2022-07-23T10:49:34;5.78;;;4.50;;
41061;SDS011;26812;42.662;23.352;2022-07-23T10:57:14;11.20;;;5.57;;
41061;SDS011;26812;42.662;23.352;2022-07-23T11:02:31;11.68;;;4.88;;
41061;SDS011;26812;42.662;23.352;2022-07-23T11:05:02;6.22;;;5.25;;
41061;SDS011;26812;42.662;23.352;2022-07-23T11:07:30;10.27;;;5.10;;
41061;SDS011;26812;42.662;23.352;2022-07-23T11:09:56;11.40;;;4.53;;
41061;SDS011;26812;42.662;23.352;2022-07-23T11:17:32;7.78;;;4.53;;
41061;SDS011;26812;42.662;23.352;2022-07-23T11:25:12;8.70;;;3.78;;
41061;SDS011;26812;42.662;23.352;2022-07-23T11:27:53;10.73;;;4.22;;
41061;SDS011;26812;42.662;23.352;2022-07-23T11:32:51;6.82;;;4.45;;
41061;SDS011;26812;42.662;23.352;2022-07-23T11:35:18;6.10;;;3.80;;
41061;SDS011;26812;42.662;23.352;2022-07-23T11:37:48;7.88;;;3.72;;
41061;SDS011;26812;42.662;23.352;2022-07-23T11:40:15;6.50;;;4.22;;
41061;SDS011;26812;42.662;23.352;2022-07-23T11:42:55;10.27;;;4.45;;
41061;SDS011;26812;42.662;23.352;2022-07-23T11:45:23;9.63;;;3.83;;
41061;SDS011;26812;42.662;23.352;2022-07-23T11:47:50;10.07;;;4.20;;
41061;SDS011;26812;42.662;23.352;2022-07-23T11:50:15;14.55;;;5.68;;
41061;SDS011;26812;42.662;23.352;2022-07-23T11:52:41;11.85;;;4.05;;
41061;SDS011;26812;42.662;23.352;2022-07-23T11:55:07;10.32;;;4.38;;
41061;SDS011;26812;42.662;23.352;2022-07-23T11:57:35;10.00;;;3.50;;
41061;SDS011;26812;42.662;23.352;2022-07-23T12:00:10;10.02;;;3.65;;
41061;SDS011;26812;42.662;23.352;2022-07-23T12:02:41;11.43;;;3.92;;
41061;SDS011;26812;42.662;23.352;2022-07-23T12:05:13;7.05;;;3.22;;
41061;SDS011;26812;42.662;23.352;2022-07-23T12:07:40;12.50;;;3.88;;
41061;SDS011;26812;42.662;23.352;2022-07-23T12:10:16;9.70;;;3.63;;
41061;SDS011;26812;42.662;23.352;2022-07-23T12:12:43;9.80;;;3.85;;
41061;SDS011;26812;42.662;23.352;2022-07-23T12:15:20;12.05;;;4.70;;
41061;SDS011;26812;42.662;23.352;2022-07-23T12:17:51;11.77;;;6.15;;
41061;SDS011;26812;42.662;23.352;2022-07-23T12:20:22;13.50;;;5.43;;
41061;SDS011;26812;42.662;23.352;2022-07-23T12:22:55;9.43;;;5.03;;
41061;SDS011;26812;42.662;23.352;2022-07-23T12:25:24;8.15;;;4.25;;
41061;SDS011;26812;42.662;23.352;2022-07-23T12:27:58;12.30;;;4.73;;
41061;SDS011;26812;42.662;23.352;2022-07-23T12:30:28;5.45;;;3.47;;
41061;SDS011;26812;42.662;23.352;2022-07-23T12:32:57;9.93;;;4.00;;
41061;SDS011;26812;42.662;23.352;2022-07-23T12:35:23;8.98;;;4.22;;
41061;SDS011;26812;42.662;23.352;2022-07-23T12:37:59;10.32;;;4.10;;
41061;SDS011;26812;42.662;23.352;2022-07-23T12:43:21;15.10;;;4.32;;
41061;SDS011;26812;42.662;23.352;2022-07-23T12:48:37;8.55;;;4.05;;
41061;SDS011;26812;42.662;23.352;2022-07-23T12:51:08;10.98;;;4.63;;
41061;SDS011;26812;42.662;23.352;2022-07-23T12:53:47;8.90;;;4.10;;
41061;SDS011;26812;42.662;23.352;2022-07-23T13:01:35;10.90;;;4.32;;
41061;SDS011;26812;42.662;23.352;2022-07-23T13:06:36;10.45;;;3.33;;
41061;SDS011;26812;42.662;23.352;2022-07-23T13:09:04;12.48;;;3.90;;
41061;SDS011;26812;42.662;23.352;2022-07-23T13:11:31;10.70;;;4.63;;
41061;SDS011;26812;42.662;23.352;2022-07-23T13:13:57;11.02;;;4.18;;
41061;SDS011;26812;42.662;23.352;2022-07-23T13:16:25;12.85;;;3.83;;
41061;SDS011;26812;42.662;23.352;2022-07-23T13:18:51;6.93;;;3.25;;
41061;SDS011;26812;42.662;23.352;2022-07-23T13:21:17;14.32;;;3.58;;
41061;SDS011;26812;42.662;23.352;2022-07-23T13:23:42;9.85;;;4.00;;
41061;SDS011;26812;42.662;23.352;2022-07-23T13:26:08;10.57;;;3.70;;
41061;SDS011;26812;42.662;23.352;2022-07-23T13:28:33;8.70;;;3.05;;
41061;SDS011;26812;42.662;23.352;2022-07-23T13:30:58;8.23;;;3.80;;
41061;SDS011;26812;42.662;23.352;2022-07-23T13:33:24;6.13;;;3.55;;
41061;SDS011;26812;42.662;23.352;2022-07-23T13:35:50;10.75;;;4.15;;
41061;SDS011;26812;42.662;23.352;2022-07-23T13:38:18;9.93;;;4.00;;
41061;SDS011;26812;42.662;23.352;2022-07-23T13:40:45;7.57;;;3.53;;
41061;SDS011;26812;42.662;23.352;2022-07-23T13:43:12;8.88;;;4.32;;
41061;SDS011;26812;42.662;23.352;2022-07-23T13:45:40;10.65;;;3.90;;
41061;SDS011;26812;42.662;23.352;2022-07-23T13:48:10;9.60;;;3.42;;
41061;SDS011;26812;42.662;23.352;2022-07-23T13:50:37;8.75;;;4.32;;
41061;SDS011;26812;42.662;23.352;2022-07-23T13:53:03;9.43;;;4.65;;
41061;SDS011;26812;42.662;23.352;2022-07-23T13:55:30;12.63;;;4.40;;
41061;SDS011;26812;42.662;23.352;2022-07-23T13:57:56;5.75;;;3.63;;
41061;SDS011;26812;42.662;23.352;2022-07-23T14:00:22;10.30;;;3.72;;
41061;SDS011;26812;42.662;23.352;2022-07-23T14:02:48;13.45;;;4.60;;
41061;SDS011;26812;42.662;23.352;2022-07-23T14:05:13;9.98;;;3.65;;
41061;SDS011;26812;42.662;23.352;2022-07-23T14:07:39;8.68;;;3.67;;
41061;SDS011;26812;42.662;23.352;2022-07-23T14:10:06;7.47;;;3.67;;
41061;SDS011;26812;42.662;23.352;2022-07-23T14:12:32;12.27;;;4.22;;
41061;SDS011;26812;42.662;23.352;2022-07-23T14:14:58;9.68;;;4.05;;
41061;SDS011;26812;42.662;23.352;2022-07-23T14:17:24;9.35;;;4.55;;
41061;SDS011;26812;42.662;23.352;2022-07-23T14:19:49;5.57;;;3.95;;
41061;SDS011;26812;42.662;23.352;2022-07-23T14:22:15;10.85;;;3.78;;
41061;SDS011;26812;42.662;23.352;2022-07-23T14:24:40;7.15;;;3.97;;
41061;SDS011;26812;42.662;23.352;2022-07-23T14:27:06;7.63;;;3.95;;
41061;SDS011;26812;42.662;23.352;2022-07-23T14:29:32;9.98;;;3.88;;
41061;SDS011;26812;42.662;23.352;2022-07-23T14:31:58;11.73;;;4.05;;
41061;SDS011;26812;42.662;23.352;2022-07-23T14:34:24;7.90;;;3.30;;
41061;SDS011;26812;42.662;23.352;2022-07-23T14:36:51;5.45;;;3.47;;
41061;SDS011;26812;42.662;23.352;2022-07-23T14:39:17;9.38;;;3.90;;
41061;SDS011;26812;42.662;23.352;2022-07-23T14:41:43;6.38;;;3.65;;
41061;SDS011;26812;42.662;23.352;2022-07-23T14:44:08;11.35;;;4.05;;
41061;SDS011;26812;42.662;23.352;2022-07-23T14:46:33;7.30;;;3.83;;
41061;SDS011;26812;42.662;23.352;2022-07-23T14:48:59;9.18;;;3.40;;
41061;SDS011;26812;42.662;23.352;2022-07-23T14:51:24;11.82;;;3.67;;
41061;SDS011;26812;42.662;23.352;2022-07-23T14:53:50;13.60;;;4.25;;
41061;SDS011;26812;42.662;23.352;2022-07-23T14:56:15;8.02;;;4.22;;
41061;SDS011;26812;42.662;23.352;2022-07-23T14:58:41;9.68;;;3.75;;
41061;SDS011;26812;42.662;23.352;2022-07-23T15:01:07;9.18;;;4.45;;
41061;SDS011;26812;42.662;23.352;2022-07-23T15:03:33;7.95;;;4.13;;
41061;SDS011;26812;42.662;23.352;2022-07-23T15:05:59;7.43;;;3.95;;
41061;SDS011;26812;42.662;23.352;2022-07-23T15:08:24;8.23;;;4.00;;
41061;SDS011;26812;42.662;23.352;2022-07-23T15:10:50;6.45;;;3.55;;
41061;SDS011;26812;42.662;23.352;2022-07-23T15:13:16;9.15;;;4.07;;
41061;SDS011;26812;42.662;23.352;2022-07-23T15:15:41;7.78;;;3.85;;
41061;SDS011;26812;42.662;23.352;2022-07-23T15:18:07;7.68;;;4.35;;
41061;SDS011;26812;42.662;23.352;2022-07-23T15:20:32;9.32;;;4.18;;
41061;SDS011;26812;42.662;23.352;2022-07-23T15:22:58;9.18;;;5.25;;
41061;SDS011;26812;42.662;23.352;2022-07-23T15:25:24;9.35;;;4.38;;
41061;SDS011;26812;42.662;23.352;2022-07-23T15:27:49;6.43;;;4.60;;
41061;SDS011;26812;42.662;23.352;2022-07-23T15:30:15;9.18;;;4.35;;
41061;SDS011;26812;42.662;23.352;2022-07-23T15:32:40;6.50;;;4.45;;